LSGM7: Little Sugar Creek nr Pineville 7SW

Data processed at Thu May 23 2019 23:50


All information presented herein is the property of the government of the United States of America and may be revised or deleted at any time without prior notice.
Dissemination of this information without the expressed written consent of the Public Affairs Office, Tulsa District U.S. Army Corps of Engineers is strictly prohibited.
These data are gathered electronically and, as presented, have not undergone any form of quality control. These data are not guaranteed to be valid or correct.
Go to home page.
Go to station list.
Go to home page.

Downstream station:


Previous Day
Next Day
Current Day
    
SHEF ID:       LSGM7     Little Sugar Creek near Pinevill
STATION TYPE:  

               PRECIP     STAGE  STAGE(2)  RIV-FLOW   VOLTAGE
                   in        ft        ft       cfs      volt
              Ccp-Rev   Ccp-Rev   Ccp-Rev   Ccp-Rev   Ccp-Rev
(US/Central)
05/23 00:00      0.00      6.21      6.13      1330     12.71
05/23 01:00      0.00      6.16      6.08      1303     12.71
05/23 02:00      0.00      6.09      6.02      1265     12.71
05/23 03:00      0.00      6.06      5.95      1249     12.71
05/23 04:00      0.00      5.98      5.90      1207     12.71
05/23 05:00      0.00      5.92      5.84      1175     12.47
05/23 06:00      0.00      5.85      5.79      1140     12.47
05/23 07:00      0.00      5.79      5.73      1110     12.47
05/23 08:00      0.00      5.76      5.68      1095     15.26
05/23 09:00      0.00      5.73      5.64      1080     12.71
05/23 10:00      0.00      5.66      5.59      1046     12.94
05/23 11:00      0.00      5.63      5.55      1031     12.94
05/23 12:00      0.00      5.57      5.51      1000     13.17
05/23 13:00      0.00      5.57      5.46      1000     12.94
05/23 14:00      0.00      5.50      5.43       962     13.41
05/23 15:00      0.00      5.47      5.40       945     13.41
05/23 16:00      0.00      5.42      5.35       919     15.27
05/23 17:00      0.00      5.40      5.32       909     12.94
05/23 18:00      0.00      5.35      5.29       883     13.17
05/23 19:00      0.00      5.29      5.25       853     12.94
05/23 20:00      0.00      5.31      5.20       863     12.71
05/23 21:00      0.00      5.30      5.18       858     12.71
05/23 22:00      0.00      5.23      5.15       823     12.71
05/23 23:00      0.00      5.20      5.12       809     12.71